Time;durP1;ratioP1;P1;durP2;ratioP2;P2;SDS_P1;SDS_P2;PMS_P1;PMS_P2;Temp;Humidity;BMP_temperature;BMP_pressure;BME280_temperature;BME280_humidity;BME280_pressure;Samples;Min_cycle;Max_cycle;Signal;HPM_P1;HPM_P2
2024/02/11 00:25:39;;;;;;;1.60;1.20;;;10.50;98.20;;;;;;6205334;22;20475;-83
2024/02/11 00:28:07;;;;;;;1.60;1.20;;;10.50;98.20;;;;;;6178690;23;20467;-83
2024/02/11 00:30:38;;;;;;;1.60;1.10;;;10.50;98.20;;;;;;6223199;23;20960;-83
2024/02/11 00:33:09;;;;;;;1.60;1.10;;;10.50;98.20;;;;;;6151909;23;20461;-83
2024/02/11 00:35:40;;;;;;;1.60;1.20;;;10.50;98.20;;;;;;6192841;23;20406;-83
2024/02/11 00:38:09;;;;;;;1.60;1.10;;;10.50;98.20;;;;;;6128428;23;20531;-83
2024/02/11 00:40:38;;;;;;;1.60;1.20;;;10.50;98.20;;;;;;6202628;23;20524;-83
2024/02/11 00:43:07;;;;;;;1.57;1.10;;;10.50;98.20;;;;;;6151175;23;20828;-84
2024/02/11 00:45:39;;;;;;;1.60;1.10;;;10.50;98.20;;;;;;6204464;23;20412;-82
2024/02/11 00:48:10;;;;;;;1.60;1.10;;;10.50;98.20;;;;;;6150792;23;20448;-83
2024/02/11 00:50:38;;;;;;;1.60;1.10;;;10.50;98.20;;;;;;6192206;23;20407;-83
2024/02/11 00:53:05;;;;;;;1.60;1.10;;;10.50;98.20;;;;;;6150891;23;20532;-82
2024/02/11 00:55:33;;;;;;;1.60;1.20;;;10.50;98.20;;;;;;6201312;23;20416;-82
2024/02/11 00:58:03;;;;;;;1.60;1.10;;;10.50;98.20;;;;;;6148589;23;20505;-82
2024/02/11 01:00:30;;;;;;;1.57;1.10;;;10.50;98.20;;;;;;6200878;23;20911;-83
2024/02/11 01:02:57;;;;;;;1.60;1.20;;;10.50;98.20;;;;;;6151132;23;20519;-83
2024/02/11 01:05:25;;;;;;;1.57;1.00;;;10.50;98.20;;;;;;6191833;23;20486;-82
2024/02/11 01:07:52;;;;;;;1.60;1.20;;;10.50;98.20;;;;;;6149867;23;20445;-83
2024/02/11 01:10:24;;;;;;;1.60;1.10;;;10.50;98.20;;;;;;6188916;23;20459;-83
2024/02/11 01:12:52;;;;;;;1.57;1.10;;;10.50;98.20;;;;;;6150030;23;20476;-83
2024/02/11 01:15:22;;;;;;;1.57;1.03;;;10.50;98.20;;;;;;6202797;23;20416;-83
2024/02/11 01:17:52;;;;;;;1.53;1.10;;;10.60;98.20;;;;;;6150445;23;20473;-84
2024/02/11 01:20:19;;;;;;;1.60;1.10;;;10.60;98.20;;;;;;6190617;23;20455;-83
2024/02/11 01:22:48;;;;;;;1.60;1.10;;;10.60;98.20;;;;;;6150293;23;20457;-83
2024/02/11 01:25:20;;;;;;;1.60;1.10;;;10.60;98.20;;;;;;6190865;23;20943;-83
2024/02/11 01:27:47;;;;;;;1.60;1.10;;;10.60;98.20;;;;;;6151929;23;20503;-83
2024/02/11 01:30:19;;;;;;;1.60;1.10;;;10.60;98.20;;;;;;6199846;23;20443;-83
2024/02/11 01:32:48;;;;;;;1.60;1.20;;;10.60;98.20;;;;;;6151713;23;20457;-83
2024/02/11 01:35:16;;;;;;;1.60;1.10;;;10.60;98.20;;;;;;6190417;23;20420;-83
2024/02/11 01:37:44;;;;;;;1.60;1.10;;;10.60;98.20;;;;;;6152652;23;20508;-83
2024/02/11 01:40:15;;;;;;;1.60;1.10;;;10.60;98.20;;;;;;6189786;23;20916;-83
2024/02/11 01:42:45;;;;;;;1.60;1.17;;;10.60;98.20;;;;;;6150250;23;20839;-83
2024/02/11 01:45:15;;;;;;;1.57;1.10;;;10.60;98.20;;;;;;6198614;23;20483;-83
2024/02/11 01:47:43;;;;;;;1.60;1.20;;;10.70;98.20;;;;;;6125530;23;20445;-83
2024/02/11 01:50:15;;;;;;;1.60;1.20;;;10.60;98.20;;;;;;6188292;23;20419;-83
2024/02/11 01:52:43;;;;;;;1.60;1.10;;;10.60;98.20;;;;;;6150304;23;21032;-83
2024/02/11 01:55:12;;;;;;;1.60;1.10;;;10.70;98.20;;;;;;6189652;23;20479;-82
2024/02/11 01:57:42;;;;;;;1.60;1.10;;;10.70;98.20;;;;;;6152548;23;20499;-82
2024/02/11 02:00:10;;;;;;;1.53;1.10;;;10.70;98.20;;;;;;6190361;23;20548;-83
2024/02/11 02:02:38;;;;;;;1.60;1.30;;;10.70;98.20;;;;;;6145514;23;20785;-83
2024/02/11 02:05:07;;;;;;;1.60;1.10;;;10.70;98.20;;;;;;6192375;23;20412;-83
2024/02/11 02:07:36;;;;;;;1.60;1.13;;;10.70;98.20;;;;;;6146641;23;20507;-83
2024/02/11 02:10:03;;;;;;;1.60;1.30;;;10.70;98.20;;;;;;6184215;23;20756;-83
2024/02/11 02:12:30;;;;;;;1.70;1.30;;;10.70;98.20;;;;;;6153715;23;20814;-83
2024/02/11 02:14:57;;;;;;;1.70;1.53;;;10.70;98.20;;;;;;6182979;23;20428;-83
2024/02/11 02:17:25;;;;;;;1.60;1.20;;;10.70;98.20;;;;;;6154360;23;20489;-82
2024/02/11 02:19:51;;;;;;;1.70;1.40;;;10.70;98.20;;;;;;6183506;23;20988;-83
2024/02/11 02:22:23;;;;;;;1.60;1.10;;;10.70;98.20;;;;;;6167265;23;20440;-84
2024/02/11 02:24:51;;;;;;;1.60;1.30;;;10.70;98.20;;;;;;6205373;23;20412;-83
2024/02/11 02:27:19;;;;;;;1.60;1.20;;;10.70;98.20;;;;;;6168542;23;20507;-83
2024/02/11 02:29:46;;;;;;;1.60;1.10;;;10.70;98.20;;;;;;6161550;23;20416;-82
2024/02/11 02:32:13;;;;;;;1.57;1.10;;;10.60;98.20;;;;;;6152907;23;20503;-82
2024/02/11 02:35:09;;;;;;;1.60;1.10;;;10.60;98.20;;;;;;6186263;23;20419;-82
2024/02/11 02:37:38;;;;;;;1.60;1.20;;;10.60;98.20;;;;;;6165362;23;20449;-82
2024/02/11 02:40:06;;;;;;;1.60;1.20;;;10.60;98.20;;;;;;6178402;23;20420;-82
2024/02/11 02:42:33;;;;;;;1.60;1.20;;;10.60;98.20;;;;;;6142019;23;20453;-82
2024/02/11 02:45:00;;;;;;;1.53;1.00;;;10.50;98.20;;;;;;6168255;23;20416;-82
2024/02/11 02:47:27;;;;;;;1.60;1.20;;;10.50;98.20;;;;;;6142796;23;20479;-82
2024/02/11 02:49:54;;;;;;;1.60;1.10;;;10.50;98.20;;;;;;6175545;23;20482;-82
2024/02/11 02:52:21;;;;;;;1.60;1.10;;;10.50;98.20;;;;;;6143961;23;20459;-82
2024/02/11 02:54:49;;;;;;;2.43;1.83;;;10.50;98.20;;;;;;6173982;23;20494;-82
2024/02/11 02:57:16;;;;;;;1.60;1.10;;;10.50;98.20;;;;;;6145312;23;20579;-82
2024/02/11 02:59:43;;;;;;;1.60;1.10;;;10.50;98.20;;;;;;6173604;23;20514;-84
2024/02/11 03:02:12;;;;;;;1.53;1.10;;;10.50;98.20;;;;;;6146012;23;20456;-82
2024/02/11 03:04:41;;;;;;;2.97;2.70;;;10.50;98.20;;;;;;6171148;23;20427;-82
2024/02/11 03:07:08;;;;;;;1.60;1.20;;;10.50;98.20;;;;;;6147071;23;20448;-82
2024/02/11 03:09:35;;;;;;;1.60;1.10;;;10.50;98.20;;;;;;6181287;23;20435;-82
2024/02/11 03:12:04;;;;;;;1.53;1.10;;;10.50;98.20;;;;;;6148644;23;20967;-82
2024/02/11 03:14:32;;;;;;;1.60;1.10;;;10.50;98.20;;;;;;6171052;23;20768;-82
2024/02/11 03:16:59;;;;;;;1.60;1.10;;;10.50;98.20;;;;;;6150364;23;20448;-82
2024/02/11 03:19:29;;;;;;;1.60;1.10;;;10.50;98.20;;;;;;6178592;23;20443;-82
2024/02/11 03:21:56;;;;;;;1.60;1.10;;;10.50;98.20;;;;;;6149974;23;20475;-83
2024/02/11 03:24:23;;;;;;;1.60;1.10;;;10.50;98.20;;;;;;6169761;23;20904;-82
2024/02/11 03:26:50;;;;;;;1.60;1.10;;;10.50;98.20;;;;;;6154297;23;20448;-82
2024/02/11 03:29:19;;;;;;;1.60;1.20;;;10.50;98.20;;;;;;6169840;23;20736;-82
2024/02/11 03:31:47;;;;;;;1.57;1.07;;;10.50;98.20;;;;;;6154187;23;20795;-82
2024/02/11 03:34:50;;;;;;;1.60;1.10;;;10.50;98.20;;;;;;6168986;23;20466;-82
2024/02/11 03:37:34;;;;;;;1.60;1.10;;;10.50;98.20;;;;;;6151647;23;20483;-83
2024/02/11 03:40:08;;;;;;;1.70;1.50;;;10.50;98.20;;;;;;6190573;23;20518;-84
2024/02/11 03:42:35;;;;;;;1.60;1.10;;;10.50;98.20;;;;;;6144205;23;20464;-82
2024/02/11 03:45:07;;;;;;;1.60;1.10;;;10.50;98.20;;;;;;6180261;23;20992;-83
2024/02/11 03:47:34;;;;;;;1.60;1.10;;;10.50;98.20;;;;;;6147281;23;20476;-83
2024/02/11 03:50:02;;;;;;;1.60;1.20;;;10.50;98.20;;;;;;6189990;23;20443;-83
2024/02/11 03:52:29;;;;;;;1.57;1.10;;;10.50;98.20;;;;;;6148437;23;20866;-84
2024/02/11 03:54:56;;;;;;;1.60;1.20;;;10.50;98.20;;;;;;6178441;23;20420;-83
2024/02/11 03:57:23;;;;;;;1.60;1.00;;;10.50;98.20;;;;;;6146974;23;20519;-83
2024/02/11 03:59:50;;;;;;;1.60;1.37;;;10.50;98.20;;;;;;6178613;23;20443;-83
2024/02/11 04:02:21;;;;;;;1.60;1.10;;;10.50;98.20;;;;;;6149432;23;20969;-83
2024/02/11 04:04:49;;;;;;;1.57;1.03;;;10.50;98.20;;;;;;6187991;23;20403;-84
2024/02/11 04:07:19;;;;;;;1.60;1.20;;;10.50;98.20;;;;;;6149215;23;20448;-83
2024/02/11 04:09:47;;;;;;;1.60;1.20;;;10.50;98.20;;;;;;6178987;23;20408;-82
2024/02/11 04:12:15;;;;;;;1.60;1.10;;;10.50;98.20;;;;;;6150452;23;20460;-83
2024/02/11 04:14:45;;;;;;;1.60;1.10;;;10.50;98.20;;;;;;6179116;23;20686;-83
2024/02/11 04:17:14;;;;;;;1.60;1.20;;;10.50;98.20;;;;;;6148645;23;20614;-83
2024/02/11 04:19:44;;;;;;;1.60;1.10;;;10.60;98.20;;;;;;6175975;23;20980;-83
2024/02/11 04:24:46;;;;;;;1.57;1.10;;;10.70;98.20;;;;;;6211070;22;20520;-83
2024/02/11 04:27:16;;;;;;;1.60;1.10;;;10.70;98.20;;;;;;6178068;23;20447;-83
2024/02/11 04:29:44;;;;;;;1.60;1.10;;;10.70;98.20;;;;;;6216557;23;20408;-83
2024/02/11 04:32:14;;;;;;;1.60;1.10;;;10.70;98.20;;;;;;6168479;23;20480;-83
2024/02/11 04:38:12;;;;;;;1.93;1.73;;;10.80;98.20;;;;;;6165877;23;20444;-83
2024/02/11 04:40:40;;;;;;;1.60;1.20;;;10.80;98.20;;;;;;6184123;23;20992;-83
2024/02/11 04:43:07;;;;;;;1.60;1.03;;;10.70;98.20;;;;;;6142450;23;20538;-83
2024/02/11 04:45:37;;;;;;;1.60;1.10;;;10.70;98.20;;;;;;6183750;23;20637;-84
2024/02/11 04:48:05;;;;;;;1.60;1.10;;;10.70;98.20;;;;;;6141944;23;20475;-83
2024/02/11 04:50:36;;;;;;;1.60;1.10;;;10.70;98.20;;;;;;6182317;23;20424;-83
2024/02/11 04:53:03;;;;;;;1.60;1.10;;;10.70;98.20;;;;;;6142438;23;21039;-83
2024/02/11 04:55:39;;;;;;;1.60;1.20;;;10.70;98.20;;;;;;6185930;23;20452;-83
2024/02/11 04:58:11;;;;;;;1.60;1.20;;;10.70;98.20;;;;;;6143280;23;20989;-83
2024/02/11 05:00:40;;;;;;;1.60;1.17;;;10.70;98.20;;;;;;6183851;23;20408;-84
2024/02/11 05:03:07;;;;;;;1.60;1.00;;;10.70;98.20;;;;;;6143807;23;20504;-84
2024/02/11 05:05:37;;;;;;;1.53;1.00;;;10.70;98.20;;;;;;6183457;23;20490;-83
2024/02/11 05:08:10;;;;;;;1.60;1.20;;;10.70;98.20;;;;;;6144123;23;20532;-83
2024/02/11 05:10:51;;;;;;;1.60;1.10;;;10.70;98.20;;;;;;6183687;23;20896;-83
2024/02/11 05:13:18;;;;;;;1.60;1.30;;;10.70;98.20;;;;;;6142375;23;20495;-84
2024/02/11 05:15:48;;;;;;;1.70;1.40;;;10.70;98.20;;;;;;6185502;23;20424;-82
2024/02/11 05:18:16;;;;;;;1.53;1.00;;;10.70;98.20;;;;;;6143688;23;20498;-80
2024/02/11 05:20:56;;;;;;;1.57;1.10;;;10.60;98.20;;;;;;6188262;23;20434;-79
2024/02/11 05:23:24;;;;;;;1.60;1.10;;;10.60;98.20;;;;;;6141138;23;20432;-81
2024/02/11 05:25:51;;;;;;;1.57;1.10;;;10.60;98.20;;;;;;6174785;23;20400;-81
2024/02/11 05:28:19;;;;;;;1.60;1.10;;;10.60;98.20;;;;;;6165543;23;20423;-81
2024/02/11 05:30:48;;;;;;;1.60;1.10;;;10.60;98.20;;;;;;6194869;23;20419;-82
2024/02/11 05:33:16;;;;;;;1.60;1.13;;;10.50;98.20;;;;;;6139863;23;20513;-80
2024/02/11 05:36:18;;;;;;;1.60;1.10;;;10.50;98.20;;;;;;6193765;23;20462;-81
2024/02/11 05:38:47;;;;;;;1.60;1.20;;;10.40;98.20;;;;;;6142561;23;20443;-81
2024/02/11 05:41:15;;;;;;;1.60;1.10;;;10.30;98.20;;;;;;6163002;23;20456;-82
2024/02/11 05:43:42;;;;;;;1.60;1.23;;;10.10;98.20;;;;;;6164507;23;20416;-83
2024/02/11 05:46:09;;;;;;;1.60;1.20;;;9.90;98.20;;;;;;6166097;23;20495;-83
2024/02/11 05:48:37;;;;;;;1.60;1.20;;;9.80;98.20;;;;;;6162239;23;20420;-83
2024/02/11 05:51:05;;;;;;;1.80;1.37;;;9.60;98.20;;;;;;6176314;23;20454;-83
2024/02/11 05:53:31;;;;;;;1.60;1.10;;;9.40;98.20;;;;;;6171420;23;20439;-83
2024/02/11 05:56:04;;;;;;;1.60;1.27;;;9.30;98.20;;;;;;6177452;23;20418;-83
2024/02/11 05:58:32;;;;;;;1.60;1.20;;;9.20;98.20;;;;;;6161836;23;20877;-83
2024/02/11 06:00:59;;;;;;;1.60;1.10;;;9.10;98.20;;;;;;6170727;23;20420;-83
2024/02/11 06:03:26;;;;;;;1.60;1.10;;;9.10;98.20;;;;;;6171580;23;20416;-83
2024/02/11 06:05:54;;;;;;;1.60;1.27;;;9.00;98.20;;;;;;6168656;23;20482;-83
2024/02/11 06:08:21;;;;;;;1.60;1.10;;;9.00;98.20;;;;;;6168890;23;20434;-83
2024/02/11 06:10:49;;;;;;;1.60;1.20;;;8.90;98.20;;;;;;6186175;23;20545;-83
2024/02/11 06:13:19;;;;;;;1.60;1.10;;;8.90;98.20;;;;;;6158902;23;20763;-83
2024/02/11 06:15:47;;;;;;;1.60;1.20;;;8.90;98.20;;;;;;6181297;23;20511;-83
2024/02/11 06:18:15;;;;;;;1.60;1.10;;;8.80;98.20;;;;;;6158600;23;20434;-84
2024/02/11 06:20:42;;;;;;;1.67;1.17;;;8.80;98.20;;;;;;6196762;23;20479;-83
2024/02/11 06:23:10;;;;;;;1.60;1.20;;;8.80;98.20;;;;;;6143449;23;20454;-82
2024/02/11 06:25:37;;;;;;;1.60;1.10;;;8.80;98.20;;;;;;6182713;23;20417;-81
2024/02/11 06:28:05;;;;;;;1.60;1.10;;;8.80;98.20;;;;;;6141898;23;20459;-83
2024/02/11 06:30:33;;;;;;;1.70;1.30;;;8.80;98.20;;;;;;6182284;23;20636;-82
2024/02/11 06:33:00;;;;;;;1.60;1.20;;;8.80;98.20;;;;;;6141237;23;20487;-83
2024/02/11 06:38:59;;;;;;;1.60;1.20;;;8.80;98.20;;;;;;6123056;23;20454;-81
2024/02/11 06:41:28;;;;;;;1.60;1.20;;;8.80;98.20;;;;;;6165676;23;20733;-81
2024/02/11 06:44:03;;;;;;;1.60;1.20;;;8.80;98.20;;;;;;6164945;23;20928;-82
2024/02/11 06:46:32;;;;;;;1.60;1.20;;;8.80;98.20;;;;;;6158018;23;20452;-82
2024/02/11 06:49:00;;;;;;;1.63;1.20;;;8.80;98.20;;;;;;6175309;23;20412;-83
2024/02/11 06:51:31;;;;;;;1.60;1.20;;;8.80;98.20;;;;;;6157955;23;20483;-81
2024/02/11 06:53:59;;;;;;;1.67;1.30;;;8.80;98.20;;;;;;6165623;23;20435;-82
2024/02/11 06:56:27;;;;;;;1.63;1.20;;;8.80;98.20;;;;;;6166562;23;20445;-80
2024/02/11 06:58:56;;;;;;;1.60;1.13;;;8.80;98.20;;;;;;6164812;23;20896;-81
2024/02/11 07:01:23;;;;;;;1.63;1.20;;;8.90;98.20;;;;;;6166012;23;20457;-81
2024/02/11 07:03:52;;;;;;;1.60;1.20;;;8.90;98.20;;;;;;6163123;23;20511;-82
2024/02/11 07:06:20;;;;;;;1.67;1.30;;;8.90;98.20;;;;;;6167466;23;20444;-82
2024/02/11 07:08:47;;;;;;;1.60;1.20;;;8.90;98.20;;;;;;6163397;23;20431;-81
2024/02/11 07:11:16;;;;;;;1.60;1.20;;;8.90;98.20;;;;;;6168858;23;20960;-79
2024/02/11 07:13:47;;;;;;;1.60;1.20;;;8.90;98.20;;;;;;6157255;23;20416;-81
2024/02/11 07:16:17;;;;;;;1.60;1.20;;;8.90;98.20;;;;;;6168455;23;20453;-79
2024/02/11 07:18:46;;;;;;;1.63;1.30;;;8.90;98.20;;;;;;6166026;23;20443;-79
2024/02/11 07:21:14;;;;;;;1.60;1.23;;;8.90;98.20;;;;;;6179806;23;20697;-79
2024/02/11 07:23:41;;;;;;;1.60;1.20;;;8.90;98.20;;;;;;6178512;23;20717;-81
2024/02/11 07:26:12;;;;;;;1.60;1.10;;;8.90;98.20;;;;;;6173527;23;20440;-81
2024/02/11 07:28:39;;;;;;;1.60;1.10;;;8.90;98.20;;;;;;6172096;23;20416;-81
2024/02/11 07:31:06;;;;;;;1.60;1.27;;;8.90;98.20;;;;;;6162437;23;20434;-81
2024/02/11 07:33:34;;;;;;;1.60;1.20;;;9.00;98.20;;;;;;6157358;23;20427;-80
2024/02/11 07:36:01;;;;;;;1.60;1.20;;;9.00;98.20;;;;;;6162006;23;20510;-81
2024/02/11 07:38:30;;;;;;;1.60;1.20;;;9.00;98.20;;;;;;6166200;23;20423;-81
2024/02/11 07:40:57;;;;;;;1.60;1.20;;;9.00;98.20;;;;;;6163803;23;20447;-81
2024/02/11 07:43:25;;;;;;;1.60;1.10;;;9.00;98.20;;;;;;6165247;23;20951;-81
2024/02/11 07:45:56;;;;;;;1.60;1.20;;;9.00;98.20;;;;;;6164720;23;20452;-81
2024/02/11 07:48:23;;;;;;;1.60;1.10;;;8.90;98.20;;;;;;6156285;23;20745;-81
2024/02/11 07:50:50;;;;;;;1.60;1.10;;;8.90;98.20;;;;;;6164902;23;20412;-81
2024/02/11 07:53:18;;;;;;;1.60;1.10;;;9.00;98.20;;;;;;6152434;23;20518;-82
2024/02/11 07:55:46;;;;;;;1.60;1.20;;;8.90;98.20;;;;;;6190674;23;20482;-81
2024/02/11 07:58:14;;;;;;;1.60;1.20;;;8.90;98.20;;;;;;6140245;23;20432;-81
2024/02/11 08:00:41;;;;;;;1.60;1.20;;;9.00;98.20;;;;;;6180281;23;20850;-82
2024/02/11 08:03:09;;;;;;;1.60;1.20;;;9.00;98.20;;;;;;6139850;23;20451;-83
2024/02/11 08:05:36;;;;;;;1.60;1.20;;;9.00;98.20;;;;;;6181794;23;20438;-84
2024/02/11 08:08:08;;;;;;;1.60;1.20;;;9.00;98.20;;;;;;6141782;23;20449;-82
2024/02/11 08:16:11;;;;;;;1.60;1.10;;;9.00;98.20;;;;;;6200879;22;20783;-83
2024/02/11 08:18:39;;;;;;;1.60;1.20;;;9.00;98.20;;;;;;6223404;23;20424;-81
2024/02/11 08:24:03;;;;;;;1.60;1.20;;;9.00;98.20;;;;;;6201465;22;20470;-83
2024/02/11 08:26:30;;;;;;;1.60;1.20;;;9.00;98.20;;;;;;6195930;23;20448;-85
2024/02/11 08:29:03;;;;;;;1.60;1.20;;;9.10;98.20;;;;;;6196841;23;20411;-83
2024/02/11 08:31:32;;;;;;;1.60;1.20;;;9.10;98.20;;;;;;6188749;23;20449;-83
2024/02/11 08:34:15;;;;;;;1.60;1.20;;;9.10;98.20;;;;;;6178019;23;20424;-83
2024/02/11 08:36:43;;;;;;;1.60;1.20;;;9.10;98.20;;;;;;6164145;23;20455;-83
2024/02/11 08:39:14;;;;;;;1.60;1.10;;;9.10;98.20;;;;;;6180895;23;20703;-82
2024/02/11 08:41:41;;;;;;;1.60;1.10;;;9.10;98.20;;;;;;6164325;23;20456;-83
2024/02/11 08:44:24;;;;;;;1.60;1.30;;;9.20;98.20;;;;;;6181161;23;20811;-83
2024/02/11 08:50:17;;;;;;;1.60;1.20;;;9.10;98.20;;;;;;6194172;23;20699;-83
2024/02/11 08:52:46;;;;;;;1.60;1.20;;;9.20;98.20;;;;;;6145034;23;20460;-82
2024/02/11 08:55:14;;;;;;;1.60;1.10;;;9.20;98.20;;;;;;6198620;23;20420;-82
2024/02/11 08:57:45;;;;;;;1.63;1.30;;;9.20;98.20;;;;;;6147394;23;20476;-82
2024/02/11 09:00:21;;;;;;;1.70;1.40;;;9.20;98.20;;;;;;6193994;23;20455;-82
2024/02/11 09:02:50;;;;;;;1.60;1.10;;;9.10;98.20;;;;;;6142355;23;20452;-83
2024/02/11 09:05:20;;;;;;;1.60;1.20;;;9.10;98.20;;;;;;6192062;23;20447;-82
2024/02/11 09:07:47;;;;;;;1.60;1.30;;;9.10;98.20;;;;;;6144886;23;20799;-84
2024/02/11 09:10:15;;;;;;;1.60;1.13;;;9.20;98.20;;;;;;6192717;23;20420;-84
2024/02/11 09:12:46;;;;;;;1.60;1.30;;;9.20;98.20;;;;;;6143461;23;20452;-83
2024/02/11 09:22:18;;;;;;;1.60;1.10;;;9.20;98.20;;;;;;6050426;23;20453;-82
2024/02/11 09:25:13;;;;;;;1.60;1.20;;;9.20;98.20;;;;;;6098010;23;20508;-82
2024/02/11 09:36:56;;;;;;;1.60;1.20;;;9.40;98.20;;;;;;6209103;23;20499;-82
2024/02/11 09:39:35;;;;;;;1.63;1.20;;;9.40;98.20;;;;;;6243057;23;20418;-82
2024/02/11 09:49:02;;;;;;;1.60;1.20;;;9.40;98.20;;;;;;6205915;22;20455;-81
2024/02/11 09:51:31;;;;;;;1.60;1.10;;;9.50;98.20;;;;;;6189787;23;20464;-82
2024/02/11 09:56:56;;;;;;;1.60;1.10;;;9.60;98.20;;;;;;6050697;23;20463;-81
2024/02/11 10:00:09;;;;;;;1.60;1.20;;;9.70;98.20;;;;;;6166290;23;20916;-81
2024/02/11 10:02:43;;;;;;;1.60;1.20;;;9.70;98.20;;;;;;6148111;23;20679;-81
2024/02/11 10:05:17;;;;;;;1.60;1.10;;;9.70;98.20;;;;;;6196806;23;20420;-82
2024/02/11 10:07:54;;;;;;;1.60;1.10;;;9.80;98.20;;;;;;6149705;23;20448;-82
2024/02/11 10:10:23;;;;;;;1.60;1.10;;;9.80;98.20;;;;;;6205021;23;20401;-83
2024/02/11 10:12:57;;;;;;;1.60;1.10;;;9.80;98.20;;;;;;6151104;23;20468;-81
2024/02/11 10:15:26;;;;;;;1.60;1.17;;;9.90;98.20;;;;;;6192806;23;20408;-82
2024/02/11 10:17:57;;;;;;;1.60;1.10;;;9.90;98.20;;;;;;6147165;23;20452;-82
2024/02/11 10:21:03;;;;;;;1.60;1.10;;;9.90;98.20;;;;;;6188346;23;20443;-82
2024/02/11 10:27:14;;;;;;;1.60;1.10;;;9.90;98.20;;;;;;6009742;23;20454;-82
2024/02/11 11:02:45;;;;;;;1.60;1.30;;;10.50;98.20;;;;;;6011865;22;20802;-81
2024/02/11 11:09:17;;;;;;;1.60;1.20;;;10.60;98.20;;;;;;6113862;23;20536;-80
2024/02/11 11:11:44;;;;;;;1.60;1.10;;;10.70;98.20;;;;;;6174102;23;20451;-81
2024/02/11 11:14:12;;;;;;;1.60;1.00;;;10.70;98.20;;;;;;6202950;23;20423;-80
2024/02/11 11:16:41;;;;;;;1.60;1.10;;;10.70;98.20;;;;;;6193252;23;20827;-81
2024/02/11 11:19:13;;;;;;;1.60;1.30;;;10.70;98.20;;;;;;6194337;23;20426;-80
2024/02/11 11:22:48;;;;;;;1.60;1.10;;;10.70;98.20;;;;;;6183904;23;20507;-80
2024/02/11 11:25:16;;;;;;;1.60;1.10;;;10.80;98.20;;;;;;6169717;23;20423;-82
2024/02/11 11:27:44;;;;;;;1.60;1.10;;;10.80;98.20;;;;;;6189865;23;20451;-81
2024/02/11 11:30:14;;;;;;;1.60;1.10;;;10.80;98.20;;;;;;6216576;23;20427;-81
2024/02/11 11:32:46;;;;;;;1.60;1.30;;;10.90;98.20;;;;;;6187090;23;20463;-80
2024/02/11 11:35:19;;;;;;;1.60;1.10;;;11.00;98.20;;;;;;6214326;23;20400;-80
2024/02/11 11:37:46;;;;;;;1.60;1.10;;;11.00;98.20;;;;;;6190436;23;20478;-80
2024/02/11 11:40:15;;;;;;;1.60;1.10;;;11.10;98.20;;;;;;6208021;23;20465;-79
2024/02/11 11:42:42;;;;;;;1.60;1.10;;;11.20;98.20;;;;;;6189350;23;20466;-79
2024/02/11 11:45:41;;;;;;;1.60;1.07;;;11.30;98.20;;;;;;6209554;22;21001;-82
2024/02/11 11:51:57;;;;;;;;;;;;;;;;;;;;;
2024/02/11 12:00:07;;;;;;;1.60;1.10;;;12.00;98.20;;;;;;6207743;23;20450;-80
2024/02/11 12:02:35;;;;;;;2.90;2.70;;;12.20;98.20;;;;;;6159873;23;20452;-82
2024/02/11 12:05:03;;;;;;;1.60;1.00;;;12.30;98.20;;;;;;6190954;23;20416;-80
2024/02/11 12:07:48;;;;;;;1.60;1.00;;;12.30;98.20;;;;;;6156979;23;20555;-81
2024/02/11 12:14:34;;;;;;;;;;;;;;;;;;;;;
2024/02/11 12:19:42;;;;;;;1.60;1.10;;;12.70;98.20;;;;;;6203426;23;20438;-81
2024/02/11 12:22:09;;;;;;;1.60;1.10;;;12.90;98.20;;;;;;6171271;23;20451;-82
2024/02/11 12:24:41;;;;;;;1.60;1.00;;;13.00;98.20;;;;;;6174516;23;20423;-81
2024/02/11 12:27:14;;;;;;;1.60;1.00;;;13.10;98.20;;;;;;6160877;23;20834;-81
2024/02/11 12:29:42;;;;;;;1.60;1.10;;;13.00;98.20;;;;;;6187986;23;20431;-81
2024/02/11 12:32:11;;;;;;;1.60;1.00;;;13.00;98.20;;;;;;6165124;23;21019;-81
2024/02/11 12:34:39;;;;;;;1.60;1.00;;;12.90;98.20;;;;;;6178346;23;20426;-81
2024/02/11 12:37:17;;;;;;;1.60;1.10;;;12.80;98.20;;;;;;6166410;23;20854;-82
2024/02/11 12:39:51;;;;;;;1.60;1.00;;;12.70;98.20;;;;;;6187817;23;20452;-83
2024/02/11 12:42:18;;;;;;;1.60;1.00;;;12.70;98.20;;;;;;6158122;23;20487;-82
2024/02/11 12:44:47;;;;;;;1.60;1.00;;;12.70;98.20;;;;;;6184463;23;20439;-82
2024/02/11 12:47:14;;;;;;;1.60;1.00;;;12.70;98.20;;;;;;6158816;23;20792;-82
2024/02/11 12:49:42;;;;;;;1.60;1.00;;;12.60;98.20;;;;;;6189696;23;20485;-81
2024/02/11 12:52:09;;;;;;;1.60;1.00;;;12.60;98.20;;;;;;6159315;23;20507;-82
2024/02/11 12:54:36;;;;;;;1.60;1.00;;;12.60;98.20;;;;;;6174574;23;20486;-83
2024/02/11 12:57:06;;;;;;;1.57;1.00;;;12.60;98.20;;;;;;6158327;23;20535;-82
2024/02/11 12:59:33;;;;;;;1.60;1.10;;;12.60;98.20;;;;;;6174217;23;20443;-82
2024/02/11 13:02:01;;;;;;;1.60;1.00;;;12.60;98.20;;;;;;6158557;23;20530;-83
2024/02/11 13:04:28;;;;;;;1.60;1.00;;;12.60;98.20;;;;;;6174381;23;20494;-83
2024/02/11 13:06:56;;;;;;;1.60;1.10;;;12.70;98.20;;;;;;6164719;23;20521;-82
2024/02/11 13:09:23;;;;;;;1.60;1.00;;;12.70;98.20;;;;;;6182177;23;20474;-82
2024/02/11 13:11:59;;;;;;;1.60;1.10;;;12.70;98.20;;;;;;6155532;23;20875;-82
2024/02/11 13:14:31;;;;;;;1.60;1.00;;;12.70;98.20;;;;;;6172847;23;20703;-83
2024/02/11 13:16:59;;;;;;;1.60;1.00;;;12.70;98.20;;;;;;6159831;23;20483;-83
2024/02/11 13:19:26;;;;;;;1.60;1.00;;;12.70;98.20;;;;;;6156844;23;20425;-82
2024/02/11 13:21:54;;;;;;;1.57;1.00;;;12.70;98.20;;;;;;6134633;23;20452;-82
2024/02/11 13:24:22;;;;;;;1.60;1.00;;;12.70;98.20;;;;;;6154729;23;20429;-83
2024/02/11 13:26:51;;;;;;;1.60;1.00;;;12.70;98.20;;;;;;6135316;23;20870;-83
2024/02/11 13:29:18;;;;;;;1.60;1.00;;;12.70;98.20;;;;;;6154688;23;20456;-82
2024/02/11 13:31:47;;;;;;;1.53;1.00;;;12.70;98.20;;;;;;6128505;23;20468;-82
2024/02/11 13:34:15;;;;;;;1.60;1.00;;;12.60;98.20;;;;;;6144896;23;20479;-83
2024/02/11 13:36:44;;;;;;;1.57;1.00;;;12.60;98.20;;;;;;6129282;23;20502;-83
2024/02/11 13:39:33;;;;;;;1.60;1.00;;;12.50;98.20;;;;;;6146219;23;20425;-82
2024/02/11 13:42:00;;;;;;;1.60;1.00;;;12.50;98.20;;;;;;6128611;23;20460;-81
2024/02/11 13:44:27;;;;;;;1.60;1.07;;;12.40;98.20;;;;;;6143674;23;20907;-82
2024/02/11 13:47:10;;;;;;;1.60;1.10;;;12.40;98.20;;;;;;6129202;23;20468;-82
2024/02/11 13:49:38;;;;;;;1.57;1.00;;;12.40;98.20;;;;;;6141235;23;20425;-82
2024/02/11 13:52:07;;;;;;;1.57;1.00;;;12.30;98.20;;;;;;6128512;23;20973;-82
2024/02/11 13:54:35;;;;;;;1.53;1.00;;;12.30;98.20;;;;;;6142477;23;20972;-81
2024/02/11 13:57:03;;;;;;;1.57;1.00;;;12.30;98.20;;;;;;6129576;23;20456;-82
2024/02/11 13:59:31;;;;;;;1.60;1.10;;;12.20;98.20;;;;;;6144686;23;21310;-83
2024/02/11 14:01:59;;;;;;;1.60;1.10;;;12.20;98.20;;;;;;6129681;23;20452;-82
2024/02/11 14:04:28;;;;;;;1.60;1.00;;;12.10;98.20;;;;;;6144261;23;20480;-82
2024/02/11 14:06:57;;;;;;;1.53;1.00;;;12.00;98.20;;;;;;6134567;23;20480;-84
2024/02/11 14:09:27;;;;;;;1.57;1.00;;;12.00;98.20;;;;;;6153327;23;20397;-82
2024/02/11 14:11:55;;;;;;;1.57;1.00;;;11.90;98.20;;;;;;6134144;23;20452;-82
2024/02/11 14:14:30;;;;;;;1.57;1.00;;;11.90;98.20;;;;;;6144596;23;20853;-82
2024/02/11 14:17:00;;;;;;;1.57;1.00;;;11.90;98.20;;;;;;6132838;23;20462;-83
2024/02/11 14:19:27;;;;;;;1.57;1.00;;;12.00;98.20;;;;;;6180734;23;20427;-83
2024/02/11 14:21:56;;;;;;;1.60;1.00;;;12.10;98.20;;;;;;6160420;23;20520;-82
2024/02/11 14:24:24;;;;;;;1.53;1.00;;;12.20;98.20;;;;;;6185852;23;20427;-84
2024/02/11 14:26:51;;;;;;;1.60;1.00;;;12.30;98.20;;;;;;6159530;23;20451;-82
2024/02/11 14:29:18;;;;;;;1.57;1.00;;;12.40;98.20;;;;;;6176314;23;20408;-83
2024/02/11 14:31:45;;;;;;;1.57;1.00;;;12.50;98.20;;;;;;6179201;23;20506;-83
2024/02/11 14:34:17;;;;;;;1.57;1.00;;;12.50;98.20;;;;;;6189553;23;20435;-84
2024/02/11 14:36:44;;;;;;;1.60;1.10;;;12.50;98.20;;;;;;6166444;23;20451;-83
2024/02/11 14:39:12;;;;;;;1.60;1.10;;;12.50;98.20;;;;;;6187129;23;20423;-81
2024/02/11 14:41:40;;;;;;;1.53;1.10;;;12.40;98.20;;;;;;6171759;23;20517;-83
2024/02/11 14:47:00;;;;;;;1.60;1.20;;;12.30;98.20;;;;;;6159781;23;20812;-84
2024/02/11 14:49:29;;;;;;;1.60;1.10;;;12.20;98.20;;;;;;6184831;23;20420;-83
2024/02/11 14:51:58;;;;;;;1.60;1.03;;;12.20;98.20;;;;;;6158071;23;20451;-83
2024/02/11 14:54:26;;;;;;;1.60;1.00;;;12.20;98.20;;;;;;6174123;23;20478;-85
2024/02/11 14:56:53;;;;;;;1.57;1.00;;;12.10;98.20;;;;;;6163781;23;20447;-82
2024/02/11 14:59:25;;;;;;;1.60;1.10;;;12.00;98.20;;;;;;6173420;23;20385;-83
2024/02/11 15:01:52;;;;;;;1.60;1.10;;;12.00;98.20;;;;;;6158572;23;20876;-82
2024/02/11 15:04:20;;;;;;;1.60;1.00;;;12.00;98.20;;;;;;6175064;23;20459;-83
2024/02/11 15:06:49;;;;;;;1.60;1.10;;;12.00;98.20;;;;;;6159873;23;20530;-83
2024/02/11 15:09:19;;;;;;;1.60;1.10;;;12.00;98.20;;;;;;6185770;23;20491;-84
2024/02/11 15:11:48;;;;;;;1.53;1.00;;;11.90;98.20;;;;;;6165394;23;20868;-81
2024/02/11 15:14:16;;;;;;;1.57;1.00;;;12.00;98.20;;;;;;6184338;23;20424;-81
2024/02/11 15:16:43;;;;;;;1.57;1.00;;;12.00;98.20;;;;;;6159845;23;20455;-82
2024/02/11 15:19:10;;;;;;;1.53;1.00;;;12.00;98.20;;;;;;6149995;23;20440;-82